sensor_id;sensor_type;location;lat;lon;timestamp;temperature;humidity
25991;DHT22;13779;-33.886;151.198;2023-07-02T00:02:25;13.10;99.90
25991;DHT22;13779;-33.886;151.198;2023-07-02T00:04:59;13.20;99.90
25991;DHT22;13779;-33.886;151.198;2023-07-02T00:07:30;13.30;99.90
25991;DHT22;13779;-33.886;151.198;2023-07-02T00:10:01;13.40;99.90
25991;DHT22;13779;-33.886;151.198;2023-07-02T00:12:31;13.40;99.90
25991;DHT22;13779;-33.886;151.198;2023-07-02T00:15:02;13.50;99.90
25991;DHT22;13779;-33.886;151.198;2023-07-02T00:17:33;13.60;99.90
25991;DHT22;13779;-33.886;151.198;2023-07-02T00:20:04;13.60;99.90
25991;DHT22;13779;-33.886;151.198;2023-07-02T00:22:35;13.70;99.90
25991;DHT22;13779;-33.886;151.198;2023-07-02T00:25:06;13.80;99.90
25991;DHT22;13779;-33.886;151.198;2023-07-02T00:27:37;13.90;99.90
25991;DHT22;13779;-33.886;151.198;2023-07-02T00:30:09;14.00;99.90
25991;DHT22;13779;-33.886;151.198;2023-07-02T00:32:39;14.00;99.90
25991;DHT22;13779;-33.886;151.198;2023-07-02T00:35:10;14.10;99.90
25991;DHT22;13779;-33.886;151.198;2023-07-02T00:37:40;14.20;99.90
25991;DHT22;13779;-33.886;151.198;2023-07-02T00:40:11;14.30;99.90
25991;DHT22;13779;-33.886;151.198;2023-07-02T00:42:41;14.40;99.90
25991;DHT22;13779;-33.886;151.198;2023-07-02T00:45:11;14.50;99.90
25991;DHT22;13779;-33.886;151.198;2023-07-02T00:47:41;14.60;99.90
25991;DHT22;13779;-33.886;151.198;2023-07-02T00:50:12;14.70;99.90
25991;DHT22;13779;-33.886;151.198;2023-07-02T00:52:43;14.70;99.90
25991;DHT22;13779;-33.886;151.198;2023-07-02T00:55:13;14.80;99.90
25991;DHT22;13779;-33.886;151.198;2023-07-02T00:57:44;15.00;99.90
25991;DHT22;13779;-33.886;151.198;2023-07-02T01:00:16;15.00;99.90
25991;DHT22;13779;-33.886;151.198;2023-07-02T01:02:54;15.10;99.90
25991;DHT22;13779;-33.886;151.198;2023-07-02T01:05:31;15.30;99.90
25991;DHT22;13779;-33.886;151.198;2023-07-02T01:08:08;15.30;99.90
25991;DHT22;13779;-33.886;151.198;2023-07-02T01:10:40;15.30;99.90
25991;DHT22;13779;-33.886;151.198;2023-07-02T01:13:17;15.50;99.90
25991;DHT22;13779;-33.886;151.198;2023-07-02T01:15:47;15.50;99.90
25991;DHT22;13779;-33.886;151.198;2023-07-02T01:18:18;15.50;99.90
25991;DHT22;13779;-33.886;151.198;2023-07-02T01:20:49;15.60;99.90
25991;DHT22;13779;-33.886;151.198;2023-07-02T01:23:20;15.70;99.90
25991;DHT22;13779;-33.886;151.198;2023-07-02T01:25:52;15.70;99.90
25991;DHT22;13779;-33.886;151.198;2023-07-02T01:28:22;15.70;99.90
25991;DHT22;13779;-33.886;151.198;2023-07-02T01:30:54;15.80;99.90
25991;DHT22;13779;-33.886;151.198;2023-07-02T01:33:24;15.90;99.90
25991;DHT22;13779;-33.886;151.198;2023-07-02T01:35:54;15.90;99.90
25991;DHT22;13779;-33.886;151.198;2023-07-02T01:38:24;15.90;99.90
25991;DHT22;13779;-33.886;151.198;2023-07-02T01:40:55;16.00;99.90
25991;DHT22;13779;-33.886;151.198;2023-07-02T01:43:25;16.00;99.90
25991;DHT22;13779;-33.886;151.198;2023-07-02T01:45:56;16.10;99.90
25991;DHT22;13779;-33.886;151.198;2023-07-02T01:48:26;16.00;99.90
25991;DHT22;13779;-33.886;151.198;2023-07-02T01:50:56;16.10;99.90
25991;DHT22;13779;-33.886;151.198;2023-07-02T01:53:27;16.20;99.90
25991;DHT22;13779;-33.886;151.198;2023-07-02T01:55:57;16.30;99.90
25991;DHT22;13779;-33.886;151.198;2023-07-02T01:58:27;16.30;99.90
25991;DHT22;13779;-33.886;151.198;2023-07-02T02:00:57;16.20;99.90
25991;DHT22;13779;-33.886;151.198;2023-07-02T02:03:27;16.20;99.90
25991;DHT22;13779;-33.886;151.198;2023-07-02T02:05:58;16.20;99.90
25991;DHT22;13779;-33.886;151.198;2023-07-02T02:08:28;16.30;99.90
25991;DHT22;13779;-33.886;151.198;2023-07-02T02:10:58;16.30;99.90
25991;DHT22;13779;-33.886;151.198;2023-07-02T02:13:30;16.30;99.90
25991;DHT22;13779;-33.886;151.198;2023-07-02T02:16:00;16.40;99.90
25991;DHT22;13779;-33.886;151.198;2023-07-02T02:18:30;16.40;99.90
25991;DHT22;13779;-33.886;151.198;2023-07-02T02:21:00;16.30;99.90
25991;DHT22;13779;-33.886;151.198;2023-07-02T02:23:30;16.40;99.90
25991;DHT22;13779;-33.886;151.198;2023-07-02T02:26:01;16.40;99.90
25991;DHT22;13779;-33.886;151.198;2023-07-02T02:28:31;16.40;99.90
25991;DHT22;13779;-33.886;151.198;2023-07-02T02:31:01;16.50;99.90
25991;DHT22;13779;-33.886;151.198;2023-07-02T02:33:33;16.50;99.90
25991;DHT22;13779;-33.886;151.198;2023-07-02T02:36:04;16.50;99.90
25991;DHT22;13779;-33.886;151.198;2023-07-02T02:38:34;16.50;99.90
25991;DHT22;13779;-33.886;151.198;2023-07-02T02:41:07;16.50;99.90
25991;DHT22;13779;-33.886;151.198;2023-07-02T02:43:40;16.50;99.90
25991;DHT22;13779;-33.886;151.198;2023-07-02T02:46:12;16.60;99.90
25991;DHT22;13779;-33.886;151.198;2023-07-02T02:48:42;16.60;99.90
25991;DHT22;13779;-33.886;151.198;2023-07-02T02:51:12;16.60;99.90
25991;DHT22;13779;-33.886;151.198;2023-07-02T02:53:42;16.60;99.90
25991;DHT22;13779;-33.886;151.198;2023-07-02T02:56:12;16.60;99.90
25991;DHT22;13779;-33.886;151.198;2023-07-02T02:58:43;16.70;99.90
25991;DHT22;13779;-33.886;151.198;2023-07-02T03:01:13;16.80;99.90
25991;DHT22;13779;-33.886;151.198;2023-07-02T03:03:44;16.90;99.90
25991;DHT22;13779;-33.886;151.198;2023-07-02T03:06:15;17.00;99.90
25991;DHT22;13779;-33.886;151.198;2023-07-02T03:08:45;17.20;99.90
25991;DHT22;13779;-33.886;151.198;2023-07-02T03:11:15;17.30;99.90
25991;DHT22;13779;-33.886;151.198;2023-07-02T03:13:45;17.40;99.90
25991;DHT22;13779;-33.886;151.198;2023-07-02T03:16:15;17.50;99.90
25991;DHT22;13779;-33.886;151.198;2023-07-02T03:18:45;17.70;99.90
25991;DHT22;13779;-33.886;151.198;2023-07-02T03:21:16;17.50;99.90
25991;DHT22;13779;-33.886;151.198;2023-07-02T03:23:48;17.70;99.90
25991;DHT22;13779;-33.886;151.198;2023-07-02T03:26:19;17.90;99.90
25991;DHT22;13779;-33.886;151.198;2023-07-02T03:28:50;18.10;99.90
25991;DHT22;13779;-33.886;151.198;2023-07-02T03:31:20;18.40;99.90
25991;DHT22;13779;-33.886;151.198;2023-07-02T03:33:50;18.40;99.90
25991;DHT22;13779;-33.886;151.198;2023-07-02T03:36:20;18.50;99.90
25991;DHT22;13779;-33.886;151.198;2023-07-02T03:38:50;18.80;99.90
25991;DHT22;13779;-33.886;151.198;2023-07-02T03:41:20;18.80;99.90
25991;DHT22;13779;-33.886;151.198;2023-07-02T03:43:50;18.90;99.90
25991;DHT22;13779;-33.886;151.198;2023-07-02T03:46:21;18.90;99.90
25991;DHT22;13779;-33.886;151.198;2023-07-02T03:48:51;19.00;99.90
25991;DHT22;13779;-33.886;151.198;2023-07-02T03:51:21;18.90;99.90
25991;DHT22;13779;-33.886;151.198;2023-07-02T03:53:51;18.90;99.90
25991;DHT22;13779;-33.886;151.198;2023-07-02T03:56:21;19.00;99.90
25991;DHT22;13779;-33.886;151.198;2023-07-02T03:58:52;18.80;99.90
25991;DHT22;13779;-33.886;151.198;2023-07-02T04:01:22;18.50;99.90
25991;DHT22;13779;-33.886;151.198;2023-07-02T04:03:53;18.60;99.90
25991;DHT22;13779;-33.886;151.198;2023-07-02T04:06:23;18.70;99.90
25991;DHT22;13779;-33.886;151.198;2023-07-02T04:08:53;18.50;99.90
25991;DHT22;13779;-33.886;151.198;2023-07-02T04:11:23;18.50;99.90
25991;DHT22;13779;-33.886;151.198;2023-07-02T04:13:53;18.40;99.90
25991;DHT22;13779;-33.886;151.198;2023-07-02T04:16:24;18.50;99.90
25991;DHT22;13779;-33.886;151.198;2023-07-02T04:18:54;18.60;99.90
25991;DHT22;13779;-33.886;151.198;2023-07-02T04:21:24;18.60;99.90
25991;DHT22;13779;-33.886;151.198;2023-07-02T04:23:54;18.60;99.90
25991;DHT22;13779;-33.886;151.198;2023-07-02T04:26:25;18.70;99.90
25991;DHT22;13779;-33.886;151.198;2023-07-02T04:28:58;18.50;99.90
25991;DHT22;13779;-33.886;151.198;2023-07-02T04:31:28;18.60;99.90
25991;DHT22;13779;-33.886;151.198;2023-07-02T04:33:58;18.70;99.90
25991;DHT22;13779;-33.886;151.198;2023-07-02T04:36:28;18.60;99.90
25991;DHT22;13779;-33.886;151.198;2023-07-02T04:38:59;18.60;99.90
25991;DHT22;13779;-33.886;151.198;2023-07-02T04:41:29;18.50;99.90
25991;DHT22;13779;-33.886;151.198;2023-07-02T04:44:00;18.60;99.90
25991;DHT22;13779;-33.886;151.198;2023-07-02T04:46:30;18.80;99.90
25991;DHT22;13779;-33.886;151.198;2023-07-02T04:49:01;18.50;99.90
25991;DHT22;13779;-33.886;151.198;2023-07-02T04:51:31;18.40;99.90
25991;DHT22;13779;-33.886;151.198;2023-07-02T04:54:01;18.20;99.90
25991;DHT22;13779;-33.886;151.198;2023-07-02T04:56:31;18.00;99.90
25991;DHT22;13779;-33.886;151.198;2023-07-02T04:59:02;17.80;99.90
25991;DHT22;13779;-33.886;151.198;2023-07-02T05:01:32;17.70;99.90
25991;DHT22;13779;-33.886;151.198;2023-07-02T05:04:02;17.50;99.90
25991;DHT22;13779;-33.886;151.198;2023-07-02T05:06:33;17.40;99.90
25991;DHT22;13779;-33.886;151.198;2023-07-02T05:09:03;17.20;99.90
25991;DHT22;13779;-33.886;151.198;2023-07-02T05:11:33;17.00;99.90
25991;DHT22;13779;-33.886;151.198;2023-07-02T05:14:03;16.90;99.90
25991;DHT22;13779;-33.886;151.198;2023-07-02T05:16:33;16.70;99.90
25991;DHT22;13779;-33.886;151.198;2023-07-02T05:19:04;16.60;99.90
25991;DHT22;13779;-33.886;151.198;2023-07-02T05:21:34;16.40;99.90
25991;DHT22;13779;-33.886;151.198;2023-07-02T05:24:04;16.30;99.90
25991;DHT22;13779;-33.886;151.198;2023-07-02T05:26:35;16.30;99.90
25991;DHT22;13779;-33.886;151.198;2023-07-02T05:29:05;16.30;99.90
25991;DHT22;13779;-33.886;151.198;2023-07-02T05:31:35;16.20;99.90
25991;DHT22;13779;-33.886;151.198;2023-07-02T05:34:06;16.20;99.90
25991;DHT22;13779;-33.886;151.198;2023-07-02T05:36:36;16.10;99.90
25991;DHT22;13779;-33.886;151.198;2023-07-02T05:39:06;16.00;99.90
25991;DHT22;13779;-33.886;151.198;2023-07-02T05:41:36;15.90;99.90
25991;DHT22;13779;-33.886;151.198;2023-07-02T05:44:07;15.90;99.90
25991;DHT22;13779;-33.886;151.198;2023-07-02T05:46:38;15.90;99.90
25991;DHT22;13779;-33.886;151.198;2023-07-02T05:49:09;15.80;99.90
25991;DHT22;13779;-33.886;151.198;2023-07-02T05:51:39;15.80;99.90
25991;DHT22;13779;-33.886;151.198;2023-07-02T05:54:10;15.70;99.90
25991;DHT22;13779;-33.886;151.198;2023-07-02T05:56:41;15.70;99.90
25991;DHT22;13779;-33.886;151.198;2023-07-02T05:59:11;15.70;99.90
25991;DHT22;13779;-33.886;151.198;2023-07-02T06:01:44;15.60;99.90
25991;DHT22;13779;-33.886;151.198;2023-07-02T06:04:15;15.60;99.90
25991;DHT22;13779;-33.886;151.198;2023-07-02T06:06:46;15.60;99.90
25991;DHT22;13779;-33.886;151.198;2023-07-02T06:09:17;15.50;99.90
25991;DHT22;13779;-33.886;151.198;2023-07-02T06:11:47;15.50;99.90
25991;DHT22;13779;-33.886;151.198;2023-07-02T06:14:18;15.50;99.90
25991;DHT22;13779;-33.886;151.198;2023-07-02T06:16:49;15.50;99.90
25991;DHT22;13779;-33.886;151.198;2023-07-02T06:19:19;15.50;99.90
25991;DHT22;13779;-33.886;151.198;2023-07-02T06:21:50;15.50;99.90
25991;DHT22;13779;-33.886;151.198;2023-07-02T06:24:20;15.40;99.90
25991;DHT22;13779;-33.886;151.198;2023-07-02T06:26:51;15.30;99.90
25991;DHT22;13779;-33.886;151.198;2023-07-02T06:29:23;15.30;99.90
25991;DHT22;13779;-33.886;151.198;2023-07-02T06:31:54;15.30;99.90
25991;DHT22;13779;-33.886;151.198;2023-07-02T06:34:24;15.30;99.90
25991;DHT22;13779;-33.886;151.198;2023-07-02T06:36:55;15.30;99.90
25991;DHT22;13779;-33.886;151.198;2023-07-02T06:39:26;15.30;99.90
25991;DHT22;13779;-33.886;151.198;2023-07-02T06:41:57;15.30;99.90
25991;DHT22;13779;-33.886;151.198;2023-07-02T06:44:28;15.20;99.90
25991;DHT22;13779;-33.886;151.198;2023-07-02T06:46:58;15.20;99.90
25991;DHT22;13779;-33.886;151.198;2023-07-02T06:49:29;15.20;99.90
25991;DHT22;13779;-33.886;151.198;2023-07-02T06:52:02;15.20;99.90
25991;DHT22;13779;-33.886;151.198;2023-07-02T06:54:33;15.10;99.90
25991;DHT22;13779;-33.886;151.198;2023-07-02T06:57:04;15.10;99.90
25991;DHT22;13779;-33.886;151.198;2023-07-02T06:59:35;15.10;99.90
25991;DHT22;13779;-33.886;151.198;2023-07-02T07:02:06;15.00;99.90
25991;DHT22;13779;-33.886;151.198;2023-07-02T07:04:36;15.00;99.90
25991;DHT22;13779;-33.886;151.198;2023-07-02T07:07:07;15.00;99.90
25991;DHT22;13779;-33.886;151.198;2023-07-02T07:09:38;15.00;99.90
25991;DHT22;13779;-33.886;151.198;2023-07-02T07:12:09;14.90;99.90
25991;DHT22;13779;-33.886;151.198;2023-07-02T07:14:39;14.90;99.90
25991;DHT22;13779;-33.886;151.198;2023-07-02T07:17:11;14.90;99.90
25991;DHT22;13779;-33.886;151.198;2023-07-02T07:19:41;14.90;99.90
25991;DHT22;13779;-33.886;151.198;2023-07-02T07:22:12;14.90;99.90
25991;DHT22;13779;-33.886;151.198;2023-07-02T07:24:43;14.90;99.90
25991;DHT22;13779;-33.886;151.198;2023-07-02T07:27:13;14.80;99.90
25991;DHT22;13779;-33.886;151.198;2023-07-02T07:29:44;14.80;99.90
25991;DHT22;13779;-33.886;151.198;2023-07-02T07:32:15;14.80;99.90
25991;DHT22;13779;-33.886;151.198;2023-07-02T07:34:45;14.70;99.90
25991;DHT22;13779;-33.886;151.198;2023-07-02T07:37:16;14.70;99.90
25991;DHT22;13779;-33.886;151.198;2023-07-02T07:39:47;14.70;99.90
25991;DHT22;13779;-33.886;151.198;2023-07-02T07:42:17;14.70;99.90
25991;DHT22;13779;-33.886;151.198;2023-07-02T07:44:48;14.70;99.90
25991;DHT22;13779;-33.886;151.198;2023-07-02T07:47:19;14.70;99.90
25991;DHT22;13779;-33.886;151.198;2023-07-02T07:49:49;14.70;99.90
25991;DHT22;13779;-33.886;151.198;2023-07-02T07:52:23;14.70;99.90
25991;DHT22;13779;-33.886;151.198;2023-07-02T07:54:53;14.70;99.90
25991;DHT22;13779;-33.886;151.198;2023-07-02T07:57:24;14.70;99.90
25991;DHT22;13779;-33.886;151.198;2023-07-02T07:59:55;14.70;99.90
25991;DHT22;13779;-33.886;151.198;2023-07-02T08:02:26;14.70;99.90
25991;DHT22;13779;-33.886;151.198;2023-07-02T08:04:57;14.70;99.90
25991;DHT22;13779;-33.886;151.198;2023-07-02T08:07:28;14.60;99.90
25991;DHT22;13779;-33.886;151.198;2023-07-02T08:09:59;14.60;99.90
25991;DHT22;13779;-33.886;151.198;2023-07-02T08:12:30;14.60;99.90
25991;DHT22;13779;-33.886;151.198;2023-07-02T08:15:04;14.60;99.90
25991;DHT22;13779;-33.886;151.198;2023-07-02T08:17:35;14.60;99.90
25991;DHT22;13779;-33.886;151.198;2023-07-02T08:20:06;14.60;99.90
25991;DHT22;13779;-33.886;151.198;2023-07-02T08:22:40;14.60;99.90
25991;DHT22;13779;-33.886;151.198;2023-07-02T08:25:11;14.60;99.90
25991;DHT22;13779;-33.886;151.198;2023-07-02T08:27:44;14.60;99.90
25991;DHT22;13779;-33.886;151.198;2023-07-02T08:30:28;14.60;99.90
25991;DHT22;13779;-33.886;151.198;2023-07-02T08:32:59;14.60;99.90
25991;DHT22;13779;-33.886;151.198;2023-07-02T08:35:30;14.60;99.90
25991;DHT22;13779;-33.886;151.198;2023-07-02T08:38:00;14.60;99.90
25991;DHT22;13779;-33.886;151.198;2023-07-02T08:40:31;14.60;99.90
25991;DHT22;13779;-33.886;151.198;2023-07-02T08:43:01;14.60;99.90
25991;DHT22;13779;-33.886;151.198;2023-07-02T08:45:34;14.60;99.90
25991;DHT22;13779;-33.886;151.198;2023-07-02T08:48:06;14.60;99.90
25991;DHT22;13779;-33.886;151.198;2023-07-02T08:50:37;14.50;99.90
25991;DHT22;13779;-33.886;151.198;2023-07-02T08:53:07;14.50;99.90
25991;DHT22;13779;-33.886;151.198;2023-07-02T08:55:39;14.50;99.90
25991;DHT22;13779;-33.886;151.198;2023-07-02T08:58:09;14.50;99.90
25991;DHT22;13779;-33.886;151.198;2023-07-02T09:03:37;14.50;99.90
25991;DHT22;13779;-33.886;151.198;2023-07-02T09:06:10;14.50;99.90
25991;DHT22;13779;-33.886;151.198;2023-07-02T09:08:40;14.40;99.90
25991;DHT22;13779;-33.886;151.198;2023-07-02T09:11:12;14.40;99.90
25991;DHT22;13779;-33.886;151.198;2023-07-02T09:13:48;14.40;99.90
25991;DHT22;13779;-33.886;151.198;2023-07-02T09:16:36;14.40;99.90
25991;DHT22;13779;-33.886;151.198;2023-07-02T09:19:09;14.40;99.90
25991;DHT22;13779;-33.886;151.198;2023-07-02T09:21:47;14.40;99.90
25991;DHT22;13779;-33.886;151.198;2023-07-02T09:26:50;14.40;99.90
25991;DHT22;13779;-33.886;151.198;2023-07-02T09:29:24;14.40;99.90
25991;DHT22;13779;-33.886;151.198;2023-07-02T09:31:58;14.30;99.90
25991;DHT22;13779;-33.886;151.198;2023-07-02T09:34:33;14.30;99.90
25991;DHT22;13779;-33.886;151.198;2023-07-02T09:37:05;14.20;99.90
25991;DHT22;13779;-33.886;151.198;2023-07-02T09:39:36;14.30;99.90
25991;DHT22;13779;-33.886;151.198;2023-07-02T09:42:07;14.20;99.90
25991;DHT22;13779;-33.886;151.198;2023-07-02T09:44:42;14.20;99.90
25991;DHT22;13779;-33.886;151.198;2023-07-02T09:47:13;14.30;99.90
25991;DHT22;13779;-33.886;151.198;2023-07-02T09:49:58;14.20;99.90
25991;DHT22;13779;-33.886;151.198;2023-07-02T09:52:30;14.30;99.90
25991;DHT22;13779;-33.886;151.198;2023-07-02T09:55:01;14.20;99.90
25991;DHT22;13779;-33.886;151.198;2023-07-02T09:57:36;14.20;99.90
25991;DHT22;13779;-33.886;151.198;2023-07-02T10:00:07;14.20;99.90
25991;DHT22;13779;-33.886;151.198;2023-07-02T10:02:41;14.10;99.90
25991;DHT22;13779;-33.886;151.198;2023-07-02T10:05:26;14.10;99.90
25991;DHT22;13779;-33.886;151.198;2023-07-02T10:08:01;14.00;99.90
25991;DHT22;13779;-33.886;151.198;2023-07-02T10:10:42;13.90;99.90
25991;DHT22;13779;-33.886;151.198;2023-07-02T10:13:12;13.90;99.90
25991;DHT22;13779;-33.886;151.198;2023-07-02T10:15:43;13.90;99.90
25991;DHT22;13779;-33.886;151.198;2023-07-02T10:18:14;13.90;99.90
25991;DHT22;13779;-33.886;151.198;2023-07-02T10:20:45;13.80;99.90
25991;DHT22;13779;-33.886;151.198;2023-07-02T10:23:16;13.70;99.90
25991;DHT22;13779;-33.886;151.198;2023-07-02T10:25:46;13.70;99.90
25991;DHT22;13779;-33.886;151.198;2023-07-02T10:28:23;13.70;99.90
25991;DHT22;13779;-33.886;151.198;2023-07-02T10:30:56;13.70;99.90
25991;DHT22;13779;-33.886;151.198;2023-07-02T10:33:26;13.80;99.90
25991;DHT22;13779;-33.886;151.198;2023-07-02T10:35:56;13.70;99.90
25991;DHT22;13779;-33.886;151.198;2023-07-02T10:38:27;13.80;99.90
25991;DHT22;13779;-33.886;151.198;2023-07-02T10:40:59;13.80;99.90
25991;DHT22;13779;-33.886;151.198;2023-07-02T10:43:32;13.70;99.90
25991;DHT22;13779;-33.886;151.198;2023-07-02T10:46:06;13.70;99.90
25991;DHT22;13779;-33.886;151.198;2023-07-02T10:48:40;13.60;99.90
25991;DHT22;13779;-33.886;151.198;2023-07-02T10:51:21;13.60;99.90
25991;DHT22;13779;-33.886;151.198;2023-07-02T10:53:59;13.60;99.90
25991;DHT22;13779;-33.886;151.198;2023-07-02T10:56:30;13.50;99.90
25991;DHT22;13779;-33.886;151.198;2023-07-02T10:59:00;13.50;99.90
25991;DHT22;13779;-33.886;151.198;2023-07-02T11:01:32;13.50;99.90
25991;DHT22;13779;-33.886;151.198;2023-07-02T11:04:04;13.50;99.90
25991;DHT22;13779;-33.886;151.198;2023-07-02T11:06:35;13.40;99.90
25991;DHT22;13779;-33.886;151.198;2023-07-02T11:09:16;13.40;99.90
25991;DHT22;13779;-33.886;151.198;2023-07-02T11:11:56;13.40;99.90
25991;DHT22;13779;-33.886;151.198;2023-07-02T11:14:37;13.30;99.90
25991;DHT22;13779;-33.886;151.198;2023-07-02T11:17:09;13.30;99.90
25991;DHT22;13779;-33.886;151.198;2023-07-02T11:19:40;13.30;99.90
25991;DHT22;13779;-33.886;151.198;2023-07-02T11:22:11;13.30;99.90
25991;DHT22;13779;-33.886;151.198;2023-07-02T11:24:41;13.30;99.90
25991;DHT22;13779;-33.886;151.198;2023-07-02T11:27:21;13.40;99.90
25991;DHT22;13779;-33.886;151.198;2023-07-02T11:29:59;13.40;99.90
25991;DHT22;13779;-33.886;151.198;2023-07-02T11:32:30;13.40;99.90
25991;DHT22;13779;-33.886;151.198;2023-07-02T11:35:01;13.40;99.90
25991;DHT22;13779;-33.886;151.198;2023-07-02T11:37:32;13.50;99.90
25991;DHT22;13779;-33.886;151.198;2023-07-02T11:40:13;13.50;99.90
25991;DHT22;13779;-33.886;151.198;2023-07-02T11:42:44;13.50;99.90
25991;DHT22;13779;-33.886;151.198;2023-07-02T11:45:17;13.50;99.90
25991;DHT22;13779;-33.886;151.198;2023-07-02T11:47:50;13.60;99.90
25991;DHT22;13779;-33.886;151.198;2023-07-02T11:50:20;13.60;99.90
25991;DHT22;13779;-33.886;151.198;2023-07-02T11:52:56;13.60;99.90
25991;DHT22;13779;-33.886;151.198;2023-07-02T11:55:27;13.50;99.90
25991;DHT22;13779;-33.886;151.198;2023-07-02T11:57:57;13.50;99.90
25991;DHT22;13779;-33.886;151.198;2023-07-02T12:00:27;13.50;99.90
25991;DHT22;13779;-33.886;151.198;2023-07-02T12:03:00;13.50;99.90
25991;DHT22;13779;-33.886;151.198;2023-07-02T12:05:30;13.50;99.90
25991;DHT22;13779;-33.886;151.198;2023-07-02T12:08:02;13.50;99.90
25991;DHT22;13779;-33.886;151.198;2023-07-02T12:10:33;13.40;99.90
25991;DHT22;13779;-33.886;151.198;2023-07-02T12:13:05;13.40;99.90
25991;DHT22;13779;-33.886;151.198;2023-07-02T12:15:35;13.40;99.90
25991;DHT22;13779;-33.886;151.198;2023-07-02T12:18:06;13.40;99.90
25991;DHT22;13779;-33.886;151.198;2023-07-02T12:20:36;13.30;99.90
25991;DHT22;13779;-33.886;151.198;2023-07-02T12:23:07;13.30;99.90
25991;DHT22;13779;-33.886;151.198;2023-07-02T12:25:39;13.30;99.90
25991;DHT22;13779;-33.886;151.198;2023-07-02T12:28:09;13.30;99.90
25991;DHT22;13779;-33.886;151.198;2023-07-02T12:30:40;13.30;99.90
25991;DHT22;13779;-33.886;151.198;2023-07-02T12:33:11;13.30;99.90
25991;DHT22;13779;-33.886;151.198;2023-07-02T12:35:41;13.30;99.90
25991;DHT22;13779;-33.886;151.198;2023-07-02T12:38:11;13.30;99.90
25991;DHT22;13779;-33.886;151.198;2023-07-02T12:40:41;13.30;99.90
25991;DHT22;13779;-33.886;151.198;2023-07-02T12:43:13;13.20;99.90
25991;DHT22;13779;-33.886;151.198;2023-07-02T12:45:43;13.20;99.90
25991;DHT22;13779;-33.886;151.198;2023-07-02T12:48:14;13.20;99.90
25991;DHT22;13779;-33.886;151.198;2023-07-02T12:50:55;13.20;99.90
25991;DHT22;13779;-33.886;151.198;2023-07-02T12:53:27;13.20;99.90
25991;DHT22;13779;-33.886;151.198;2023-07-02T12:55:58;13.20;99.90
25991;DHT22;13779;-33.886;151.198;2023-07-02T12:58:28;13.20;99.90
25991;DHT22;13779;-33.886;151.198;2023-07-02T13:00:59;13.20;99.90
25991;DHT22;13779;-33.886;151.198;2023-07-02T13:03:31;13.20;99.90
25991;DHT22;13779;-33.886;151.198;2023-07-02T13:06:02;13.20;99.90
25991;DHT22;13779;-33.886;151.198;2023-07-02T13:08:33;13.20;99.90
25991;DHT22;13779;-33.886;151.198;2023-07-02T13:11:03;13.10;99.90
25991;DHT22;13779;-33.886;151.198;2023-07-02T13:13:36;13.10;99.90
25991;DHT22;13779;-33.886;151.198;2023-07-02T13:16:07;13.00;99.90
25991;DHT22;13779;-33.886;151.198;2023-07-02T13:18:38;13.00;99.90
25991;DHT22;13779;-33.886;151.198;2023-07-02T13:21:08;12.90;99.90
25991;DHT22;13779;-33.886;151.198;2023-07-02T13:23:39;12.90;99.90
25991;DHT22;13779;-33.886;151.198;2023-07-02T13:26:10;12.90;99.90
25991;DHT22;13779;-33.886;151.198;2023-07-02T13:28:40;12.90;99.90
25991;DHT22;13779;-33.886;151.198;2023-07-02T13:31:11;12.90;99.90
25991;DHT22;13779;-33.886;151.198;2023-07-02T13:33:42;12.90;99.90
25991;DHT22;13779;-33.886;151.198;2023-07-02T13:36:13;12.90;99.90
25991;DHT22;13779;-33.886;151.198;2023-07-02T13:38:43;13.00;99.90
25991;DHT22;13779;-33.886;151.198;2023-07-02T13:41:14;13.00;99.90
25991;DHT22;13779;-33.886;151.198;2023-07-02T13:43:44;13.00;99.90
25991;DHT22;13779;-33.886;151.198;2023-07-02T13:46:14;13.00;99.90
25991;DHT22;13779;-33.886;151.198;2023-07-02T13:48:44;13.00;99.90
25991;DHT22;13779;-33.886;151.198;2023-07-02T13:51:15;12.90;99.90
25991;DHT22;13779;-33.886;151.198;2023-07-02T13:53:45;12.90;99.90
25991;DHT22;13779;-33.886;151.198;2023-07-02T13:56:15;12.90;99.90
25991;DHT22;13779;-33.886;151.198;2023-07-02T14:01:27;12.90;99.90
25991;DHT22;13779;-33.886;151.198;2023-07-02T14:03:58;12.80;99.90
25991;DHT22;13779;-33.886;151.198;2023-07-02T14:06:28;12.90;99.90
25991;DHT22;13779;-33.886;151.198;2023-07-02T14:08:58;12.80;99.90
25991;DHT22;13779;-33.886;151.198;2023-07-02T14:11:29;12.80;99.90
25991;DHT22;13779;-33.886;151.198;2023-07-02T14:13:59;12.80;99.90
25991;DHT22;13779;-33.886;151.198;2023-07-02T14:16:29;12.80;99.90
25991;DHT22;13779;-33.886;151.198;2023-07-02T14:18:59;12.80;99.90
25991;DHT22;13779;-33.886;151.198;2023-07-02T14:21:29;12.80;99.90
25991;DHT22;13779;-33.886;151.198;2023-07-02T14:24:00;12.80;99.90
25991;DHT22;13779;-33.886;151.198;2023-07-02T14:26:30;12.80;99.90
25991;DHT22;13779;-33.886;151.198;2023-07-02T14:29:00;12.80;99.90
25991;DHT22;13779;-33.886;151.198;2023-07-02T14:31:31;12.80;99.90
25991;DHT22;13779;-33.886;151.198;2023-07-02T14:34:01;12.80;99.90
25991;DHT22;13779;-33.886;151.198;2023-07-02T14:36:31;12.80;99.90
25991;DHT22;13779;-33.886;151.198;2023-07-02T14:39:01;12.80;99.90
25991;DHT22;13779;-33.886;151.198;2023-07-02T14:41:31;12.90;99.90
25991;DHT22;13779;-33.886;151.198;2023-07-02T14:44:05;12.90;99.90
25991;DHT22;13779;-33.886;151.198;2023-07-02T14:46:35;12.90;99.90
25991;DHT22;13779;-33.886;151.198;2023-07-02T14:49:05;12.80;99.90
25991;DHT22;13779;-33.886;151.198;2023-07-02T14:51:36;12.80;99.90
25991;DHT22;13779;-33.886;151.198;2023-07-02T14:54:06;12.80;99.90
25991;DHT22;13779;-33.886;151.198;2023-07-02T14:56:37;12.70;99.90
25991;DHT22;13779;-33.886;151.198;2023-07-02T14:59:07;12.80;99.90
25991;DHT22;13779;-33.886;151.198;2023-07-02T15:01:38;12.70;99.90
25991;DHT22;13779;-33.886;151.198;2023-07-02T15:04:09;12.70;99.90
25991;DHT22;13779;-33.886;151.198;2023-07-02T15:06:39;12.70;99.90
25991;DHT22;13779;-33.886;151.198;2023-07-02T15:09:09;12.60;99.90
25991;DHT22;13779;-33.886;151.198;2023-07-02T15:11:40;12.70;99.90
25991;DHT22;13779;-33.886;151.198;2023-07-02T15:14:10;12.70;99.90
25991;DHT22;13779;-33.886;151.198;2023-07-02T15:16:40;12.70;99.90
25991;DHT22;13779;-33.886;151.198;2023-07-02T15:19:10;12.60;99.90
25991;DHT22;13779;-33.886;151.198;2023-07-02T15:21:42;12.70;99.90